createdAt,value
2018-10-17T00:00:32.750Z,0
2018-10-17T00:01:33.461Z,0
2018-10-17T00:02:34.131Z,0
2018-10-17T00:03:34.804Z,0
2018-10-17T00:04:35.514Z,0
2018-10-17T00:05:36.185Z,0
2018-10-17T00:06:36.856Z,0
2018-10-17T00:07:37.525Z,0
2018-10-17T00:08:38.197Z,0
2018-10-17T00:09:38.867Z,0
2018-10-17T00:10:39.536Z,0
2018-10-17T00:11:40.207Z,0
2018-10-17T00:12:40.879Z,0
2018-10-17T00:13:41.590Z,0
2018-10-17T00:14:42.261Z,0
2018-10-17T00:15:42.975Z,0
2018-10-17T00:16:43.644Z,0
2018-10-17T00:17:44.315Z,0
2018-10-17T00:18:45.019Z,0
2018-10-17T00:19:45.688Z,0
2018-10-17T00:20:46.359Z,0
2018-10-17T00:21:47.032Z,0
2018-10-17T00:22:47.701Z,0
2018-10-17T00:23:48.371Z,0
2018-10-17T00:24:49.041Z,0
2018-10-17T00:25:49.710Z,0
2018-10-17T00:26:50.384Z,0
2018-10-17T00:27:51.053Z,0
2018-10-17T00:28:51.735Z,0
2018-10-17T00:29:52.435Z,0
2018-10-17T00:30:53.109Z,0
2018-10-17T00:31:53.777Z,0
2018-10-17T00:32:54.446Z,0
2018-10-17T00:33:55.122Z,0
2018-10-17T00:34:55.807Z,0
2018-10-17T00:35:56.454Z,0
2018-10-17T00:36:57.147Z,0
2018-10-17T00:37:57.794Z,0
2018-10-17T00:38:58.465Z,0
2018-10-17T00:39:59.135Z,0
2018-10-17T00:40:59.867Z,0
2018-10-17T00:42:00.475Z,0
2018-10-17T00:43:01.178Z,0
2018-10-17T00:44:01.815Z,0
2018-10-17T00:45:02.487Z,0
2018-10-17T00:46:03.157Z,0
2018-10-17T00:47:03.861Z,0
2018-10-17T00:48:04.496Z,0
2018-10-17T00:49:05.235Z,0
2018-10-17T00:50:05.838Z,0
2018-10-17T00:51:06.508Z,0
2018-10-17T00:52:07.178Z,0
2018-10-17T00:53:07.917Z,0
2018-10-17T00:54:08.517Z,0
2018-10-17T00:55:09.225Z,0
2018-10-17T00:56:09.860Z,0
2018-10-17T00:57:10.529Z,0
2018-10-17T00:58:11.199Z,0
2018-10-17T00:59:11.904Z,0
2018-10-17T01:00:12.541Z,0
2018-10-17T01:01:13.316Z,0
2018-10-17T01:02:13.941Z,0
2018-10-17T01:03:14.640Z,0
2018-10-17T01:04:15.310Z,0
2018-10-17T01:05:16.034Z,0
2018-10-17T01:06:16.688Z,0
2018-10-17T01:07:17.360Z,0
2018-10-17T01:08:18.074Z,0
2018-10-17T01:09:18.741Z,0
2018-10-17T01:10:19.410Z,0
2018-10-17T01:11:20.081Z,0
2018-10-17T01:12:20.753Z,0
2018-10-17T01:13:21.464Z,0
2018-10-17T01:14:22.133Z,0
2018-10-17T01:15:22.803Z,0
2018-10-17T01:16:23.471Z,0
2018-10-17T01:17:24.142Z,0
2018-10-17T01:18:24.812Z,0
2018-10-17T01:19:25.487Z,0
2018-10-17T01:20:26.156Z,0
2018-10-17T01:21:26.864Z,0
2018-10-17T01:22:27.535Z,0
2018-10-17T01:23:28.205Z,0
2018-10-17T01:24:28.874Z,0
2018-10-17T01:25:29.545Z,0
2018-10-17T01:26:30.215Z,0
2018-10-17T01:27:30.885Z,0
2018-10-17T01:28:31.558Z,0
2018-10-17T01:29:32.226Z,0
2018-10-17T01:30:32.897Z,0
2018-10-17T01:31:33.566Z,0
2018-10-17T01:32:34.235Z,0
2018-10-17T01:33:34.904Z,0
2018-10-17T01:34:35.575Z,0
2018-10-17T01:35:36.244Z,0
2018-10-17T01:36:36.913Z,0
2018-10-17T01:37:37.583Z,0
2018-10-17T01:38:38.252Z,0
2018-10-17T01:39:38.924Z,0
2018-10-17T01:40:39.593Z,0
2018-10-17T01:41:40.262Z,0
2018-10-17T01:42:40.955Z,0
2018-10-17T01:43:41.601Z,0
2018-10-17T01:44:42.272Z,0
2018-10-17T01:45:42.943Z,0
2018-10-17T01:46:43.614Z,0
2018-10-17T01:47:44.282Z,0
2018-10-17T01:48:44.952Z,0
2018-10-17T01:49:45.622Z,0
2018-10-17T01:50:46.292Z,0
2018-10-17T01:51:46.963Z,0
2018-10-17T01:52:47.636Z,0
2018-10-17T01:53:48.302Z,0
2018-10-17T01:54:48.973Z,0
2018-10-17T01:55:49.642Z,0
2018-10-17T01:56:50.316Z,0
2018-10-17T01:57:50.983Z,0
2018-10-17T01:58:51.668Z,0
2018-10-17T01:59:52.373Z,0
2018-10-17T02:00:53.047Z,0
2018-10-17T02:01:53.717Z,0
2018-10-17T02:02:54.383Z,0
2018-10-17T02:03:55.053Z,0
2018-10-17T02:04:55.754Z,0
2018-10-17T02:05:56.392Z,0
2018-10-17T02:06:57.094Z,0
2018-10-17T02:07:57.778Z,0
2018-10-17T02:08:58.450Z,0
2018-10-17T02:09:59.119Z,0
2018-10-17T02:10:59.814Z,0
2018-10-17T02:12:00.461Z,0
2018-10-17T02:13:01.230Z,0
2018-10-17T02:14:01.850Z,0
2018-10-17T02:15:02.554Z,0
2018-10-17T02:16:03.223Z,0
2018-10-17T02:17:03.897Z,0
2018-10-17T02:18:04.605Z,0
2018-10-17T02:19:05.319Z,0
2018-10-17T02:20:05.944Z,0
2018-10-17T02:21:06.615Z,0
2018-10-17T02:22:07.283Z,0
2018-10-17T02:23:08.007Z,0
2018-10-17T02:24:08.660Z,0
2018-10-17T02:25:09.373Z,0
2018-10-17T02:26:09.999Z,0
2018-10-17T02:27:10.720Z,0
2018-10-17T02:28:11.388Z,0
2018-10-17T02:29:12.146Z,0
2018-10-17T02:30:12.730Z,0
2018-10-17T02:31:13.472Z,0
2018-10-17T02:32:14.078Z,0
2018-10-17T02:33:14.739Z,0
2018-10-17T02:34:15.413Z,0
2018-10-17T02:35:16.143Z,0
2018-10-17T02:36:16.752Z,0
2018-10-17T02:37:17.519Z,0
2018-10-17T02:38:18.132Z,0
2018-10-17T02:39:18.800Z,0
2018-10-17T02:40:19.475Z,0
2018-10-17T02:41:20.171Z,0
2018-10-17T02:42:20.812Z,0
2018-10-17T02:43:21.482Z,0
2018-10-17T02:44:22.155Z,0
2018-10-17T02:45:22.823Z,0
2018-10-17T02:46:23.491Z,0
2018-10-17T02:47:24.162Z,0
2018-10-17T02:48:24.831Z,0
2018-10-17T02:49:25.505Z,0
2018-10-17T02:50:26.171Z,0
2018-10-17T02:51:26.843Z,0
2018-10-17T02:52:27.513Z,0
2018-10-17T02:53:28.231Z,0
2018-10-17T02:54:28.939Z,0
2018-10-17T02:55:29.622Z,0
2018-10-17T02:56:30.281Z,0
2018-10-17T02:57:30.953Z,0
2018-10-17T02:58:31.652Z,0
2018-10-17T02:59:32.334Z,0
2018-10-17T03:00:33.003Z,0
2018-10-17T03:01:33.675Z,0
2018-10-17T03:02:34.345Z,0
2018-10-17T03:03:35.015Z,0
2018-10-17T03:04:35.688Z,0
2018-10-17T03:05:36.357Z,0
2018-10-17T03:06:37.022Z,0
2018-10-17T03:07:37.725Z,0
2018-10-17T03:08:38.405Z,0
2018-10-17T03:09:39.076Z,0
2018-10-17T03:10:39.755Z,0
2018-10-17T03:11:40.457Z,0
2018-10-17T03:12:41.128Z,0
2018-10-17T03:13:41.799Z,0
2018-10-17T03:14:42.471Z,0
2018-10-17T03:15:43.183Z,0
2018-10-17T03:16:43.853Z,0
2018-10-17T03:17:44.524Z,0
2018-10-17T03:18:45.199Z,0
2018-10-17T03:19:45.937Z,0
2018-10-17T03:20:46.578Z,0
2018-10-17T03:21:47.246Z,0
2018-10-17T03:22:47.916Z,0
2018-10-17T03:23:48.589Z,0
2018-10-17T03:24:49.265Z,0
2018-10-17T03:25:49.926Z,0
2018-10-17T03:26:50.595Z,0
2018-10-17T03:27:51.400Z,0
2018-10-17T03:28:51.987Z,0
2018-10-17T03:29:52.657Z,0
2018-10-17T03:30:53.335Z,0
2018-10-17T03:31:54.001Z,0
2018-10-17T03:32:54.709Z,0
2018-10-17T03:33:55.422Z,0
2018-10-17T03:34:56.120Z,0
2018-10-17T03:35:56.809Z,0
2018-10-17T03:36:57.493Z,0
2018-10-17T03:37:58.104Z,0
2018-10-17T03:38:58.775Z,0
2018-10-17T03:39:59.444Z,0
2018-10-17T03:41:00.118Z,0
2018-10-17T03:42:00.783Z,0
2018-10-17T03:43:01.519Z,0
2018-10-17T03:44:02.128Z,0
2018-10-17T03:45:02.795Z,0
2018-10-17T03:46:03.464Z,0
2018-10-17T03:47:04.197Z,0
2018-10-17T03:48:04.804Z,0
2018-10-17T03:49:05.492Z,0
2018-10-17T03:50:06.148Z,0
2018-10-17T03:51:06.860Z,0
2018-10-17T03:52:07.571Z,0
2018-10-17T03:53:08.307Z,0
2018-10-17T03:54:08.912Z,0
2018-10-17T03:55:09.626Z,0
2018-10-17T03:56:10.250Z,0
2018-10-17T03:57:10.920Z,0
2018-10-17T03:58:11.590Z,0
2018-10-17T03:59:12.345Z,0
2018-10-17T04:00:12.932Z,0
2018-10-17T04:01:13.787Z,0
2018-10-17T04:02:14.317Z,0
2018-10-17T04:03:15.043Z,0
2018-10-17T04:04:15.664Z,0
2018-10-17T04:05:16.433Z,0
2018-10-17T04:06:16.998Z,0
2018-10-17T04:07:17.728Z,0
2018-10-17T04:08:18.339Z,0
2018-10-17T04:09:19.008Z,0
2018-10-17T04:10:19.683Z,0
2018-10-17T04:11:20.392Z,0
2018-10-17T04:12:21.062Z,0
2018-10-17T04:13:21.731Z,0
2018-10-17T04:14:22.400Z,0
2018-10-17T04:15:23.071Z,0
2018-10-17T04:16:23.741Z,0
2018-10-17T04:17:24.438Z,0
2018-10-17T04:18:25.121Z,0
2018-10-17T04:19:25.790Z,0
2018-10-17T04:20:26.462Z,0
2018-10-17T04:21:27.130Z,0
2018-10-17T04:22:27.810Z,0
2018-10-17T04:23:28.470Z,0
2018-10-17T04:24:29.182Z,0
2018-10-17T04:25:29.855Z,0
2018-10-17T04:26:30.524Z,0
2018-10-17T04:27:31.196Z,0
2018-10-17T04:28:31.863Z,0
2018-10-17T04:29:32.533Z,0
2018-10-17T04:30:33.202Z,0
2018-10-17T04:31:33.872Z,0
2018-10-17T04:32:34.541Z,0
2018-10-17T04:33:35.212Z,0
2018-10-17T04:34:35.880Z,0
2018-10-17T04:35:36.549Z,0
2018-10-17T04:36:37.220Z,0
2018-10-17T04:37:37.889Z,0
2018-10-17T04:38:38.560Z,0
2018-10-17T04:39:39.229Z,0
2018-10-17T04:40:39.902Z,0
2018-10-17T04:41:40.615Z,0
2018-10-17T04:42:41.284Z,0
2018-10-17T04:43:41.958Z,0
2018-10-17T04:44:42.624Z,0
2018-10-17T04:45:43.294Z,0
2018-10-17T04:46:43.970Z,0
2018-10-17T04:47:44.734Z,0
2018-10-17T04:48:45.307Z,0
2018-10-17T04:49:45.976Z,0
2018-10-17T04:50:46.645Z,0
2018-10-17T04:51:47.315Z,0
2018-10-17T04:52:47.990Z,0
2018-10-17T04:53:48.654Z,0
2018-10-17T04:54:49.324Z,0
2018-10-17T04:55:49.994Z,0
2018-10-17T04:56:50.660Z,0
2018-10-17T04:57:51.331Z,0
2018-10-17T04:58:52.002Z,0
2018-10-17T04:59:52.670Z,0
2018-10-17T05:00:53.354Z,0
2018-10-17T05:01:54.053Z,0
2018-10-17T05:02:54.767Z,0
2018-10-17T05:03:55.434Z,0
2018-10-17T05:04:56.190Z,0
2018-10-17T05:05:56.806Z,0
2018-10-17T05:06:57.572Z,0
2018-10-17T05:07:58.143Z,0
2018-10-17T05:08:58.812Z,0
2018-10-17T05:09:59.483Z,0
2018-10-17T05:11:00.166Z,0
2018-10-17T05:12:00.822Z,0
2018-10-17T05:13:01.569Z,4
2018-10-17T05:14:02.198Z,4
2018-10-17T05:15:02.872Z,0
2018-10-17T05:16:03.539Z,4
2018-10-17T05:17:04.283Z,4
2018-10-17T05:18:04.920Z,4
2018-10-17T05:19:05.604Z,8
2018-10-17T05:20:06.304Z,8
2018-10-17T05:21:06.980Z,12
2018-10-17T05:22:07.689Z,12
2018-10-17T05:23:08.461Z,12
2018-10-17T05:24:09.072Z,16
2018-10-17T05:25:09.809Z,16
2018-10-17T05:26:10.414Z,24
2018-10-17T05:27:11.084Z,24
2018-10-17T05:28:11.755Z,28
2018-10-17T05:29:12.458Z,32
2018-10-17T05:30:13.099Z,40
2018-10-17T05:31:13.835Z,44
2018-10-17T05:32:14.440Z,48
2018-10-17T05:33:15.111Z,56
2018-10-17T05:34:15.779Z,64
2018-10-17T05:35:16.535Z,72
2018-10-17T05:36:17.120Z,80
2018-10-17T05:37:17.999Z,92
2018-10-17T05:38:18.463Z,104
2018-10-17T05:39:19.136Z,112
2018-10-17T05:40:19.850Z,124
2018-10-17T05:41:20.524Z,136
2018-10-17T05:42:21.194Z,152
2018-10-17T05:43:21.865Z,168
2018-10-17T05:44:22.572Z,176
2018-10-17T05:45:23.210Z,192
2018-10-17T05:46:23.880Z,208
2018-10-17T05:47:24.558Z,220
2018-10-17T05:48:25.229Z,236
2018-10-17T05:49:25.939Z,256
2018-10-17T05:50:26.611Z,272
2018-10-17T05:51:27.285Z,292
2018-10-17T05:52:28.003Z,304
2018-10-17T05:53:28.675Z,324
2018-10-17T05:54:29.346Z,340
2018-10-17T05:55:30.086Z,360
2018-10-17T05:56:30.731Z,376
2018-10-17T05:57:31.403Z,396
2018-10-17T05:58:32.076Z,412
2018-10-17T05:59:32.748Z,428
2018-10-17T06:00:33.420Z,444
2018-10-17T06:01:34.139Z,464
2018-10-17T06:02:34.829Z,488
2018-10-17T06:03:35.442Z,504
2018-10-17T06:04:36.112Z,528
2018-10-17T06:05:36.786Z,548
2018-10-17T06:06:37.458Z,568
2018-10-17T06:07:38.139Z,584
2018-10-17T06:08:38.845Z,600
2018-10-17T06:09:39.518Z,612
2018-10-17T06:10:40.190Z,628
2018-10-17T06:11:40.864Z,640
2018-10-17T06:12:41.537Z,656
2018-10-17T06:13:42.210Z,664
2018-10-17T06:14:42.882Z,680
2018-10-17T06:15:43.556Z,696
2018-10-17T06:16:44.279Z,716
2018-10-17T06:17:44.904Z,732
2018-10-17T06:18:45.577Z,756
2018-10-17T06:19:46.252Z,776
2018-10-17T06:20:46.994Z,796
2018-10-17T06:21:47.681Z,824
2018-10-17T06:22:48.355Z,852
2018-10-17T06:23:49.065Z,888
2018-10-17T06:24:49.743Z,928
2018-10-17T06:25:50.415Z,980
2018-10-17T06:26:51.090Z,1036
2018-10-17T06:27:51.764Z,1096
2018-10-17T06:28:52.439Z,1144
2018-10-17T06:29:53.112Z,1200
2018-10-17T06:30:53.791Z,1256
2018-10-17T06:31:54.460Z,1308
2018-10-17T06:32:55.176Z,1356
2018-10-17T06:33:55.913Z,1388
2018-10-17T06:34:56.884Z,1412
2018-10-17T06:35:57.481Z,1444
2018-10-17T06:36:58.162Z,1484
2018-10-17T06:37:58.826Z,1536
2018-10-17T06:38:59.502Z,1584
2018-10-17T06:40:00.176Z,1640
2018-10-17T06:41:00.896Z,1700
2018-10-17T06:42:01.573Z,1748
2018-10-17T06:43:02.273Z,1800
2018-10-17T06:44:03.020Z,1872
2018-10-17T06:45:03.598Z,1964
2018-10-17T06:46:04.273Z,2044
2018-10-17T06:47:05.332Z,2088
2018-10-17T06:48:05.907Z,2120
2018-10-17T06:49:06.648Z,2136
2018-10-17T06:50:07.255Z,2148
2018-10-17T06:51:08.004Z,2160
2018-10-17T06:52:08.604Z,2164
2018-10-17T06:53:09.331Z,2156
2018-10-17T06:54:09.961Z,2144
2018-10-17T06:55:10.681Z,2144
2018-10-17T06:56:11.302Z,2164
2018-10-17T06:57:11.977Z,2180
2018-10-17T06:58:12.652Z,2204
2018-10-17T06:59:13.406Z,2220
2018-10-17T07:00:13.999Z,2232
2018-10-17T07:01:14.739Z,2224
2018-10-17T07:02:15.368Z,2192
2018-10-17T07:03:16.060Z,2160
2018-10-17T07:04:16.777Z,2148
2018-10-17T07:05:17.503Z,2152
2018-10-17T07:06:18.127Z,2172
2018-10-17T07:07:18.889Z,2212
2018-10-17T07:08:19.502Z,2260
2018-10-17T07:09:20.225Z,2296
2018-10-17T07:10:20.828Z,2332
2018-10-17T07:11:21.585Z,2356
2018-10-17T07:12:22.178Z,2396
2018-10-17T07:13:22.944Z,2448
2018-10-17T07:14:23.530Z,2524
2018-10-17T07:15:24.371Z,2592
2018-10-17T07:16:24.920Z,2660
2018-10-17T07:17:25.597Z,2720
2018-10-17T07:18:26.313Z,2776
2018-10-17T07:19:26.991Z,2832
2018-10-17T07:20:27.662Z,2920
2018-10-17T07:21:28.336Z,2964
2018-10-17T07:22:29.037Z,2976
2018-10-17T07:23:29.730Z,2944
2018-10-17T07:24:30.412Z,2932
2018-10-17T07:25:31.080Z,2936
2018-10-17T07:26:31.752Z,2932
2018-10-17T07:27:32.426Z,2932
2018-10-17T07:28:33.110Z,2952
2018-10-17T07:29:33.858Z,3020
2018-10-17T07:30:34.451Z,3016
2018-10-17T07:31:35.124Z,2976
2018-10-17T07:32:35.799Z,2940
2018-10-17T07:33:36.474Z,2916
2018-10-17T07:34:37.179Z,2868
2018-10-17T07:35:37.921Z,2824
2018-10-17T07:36:38.540Z,2796
2018-10-17T07:37:39.215Z,2768
2018-10-17T07:38:39.890Z,2744
2018-10-17T07:39:40.566Z,2744
2018-10-17T07:40:41.282Z,2752
2018-10-17T07:41:41.958Z,2776
2018-10-17T07:42:42.674Z,2808
2018-10-17T07:43:43.350Z,2872
2018-10-17T07:44:44.027Z,2984
2018-10-17T07:45:44.741Z,3104
2018-10-17T07:46:45.380Z,3240
2018-10-17T07:47:46.100Z,3384
2018-10-17T07:48:46.776Z,3544
2018-10-17T07:49:47.452Z,3716
2018-10-17T07:50:48.128Z,3892
2018-10-17T07:51:48.806Z,4036
2018-10-17T07:52:49.483Z,4140
2018-10-17T07:53:50.160Z,4248
2018-10-17T07:54:50.835Z,4328
2018-10-17T07:55:51.510Z,4384
2018-10-17T07:56:52.188Z,4428
2018-10-17T07:57:52.864Z,4452
2018-10-17T07:58:53.582Z,4432
2018-10-17T07:59:54.392Z,4416
2018-10-17T08:00:54.936Z,4372
2018-10-17T08:01:55.616Z,4400
2018-10-17T08:02:56.288Z,4420
2018-10-17T08:03:56.964Z,4436
2018-10-17T08:04:57.641Z,4500
2018-10-17T08:05:58.330Z,4564
2018-10-17T08:06:58.994Z,4588
2018-10-17T08:07:59.669Z,4564
2018-10-17T08:09:00.346Z,4524
2018-10-17T08:10:01.077Z,4476
2018-10-17T08:11:01.744Z,4456
2018-10-17T08:12:02.504Z,4436
2018-10-17T08:13:03.093Z,4432
2018-10-17T08:14:03.885Z,4416
2018-10-17T08:15:04.483Z,4392
2018-10-17T08:16:05.159Z,4372
2018-10-17T08:17:05.835Z,4396
2018-10-17T08:18:06.567Z,4444
2018-10-17T08:19:07.189Z,4488
2018-10-17T08:20:07.864Z,4524
2018-10-17T08:21:08.553Z,4532
2018-10-17T08:22:09.262Z,4512
2018-10-17T08:23:09.938Z,4500
2018-10-17T08:24:10.685Z,4520
2018-10-17T08:25:11.301Z,4572
2018-10-17T08:26:11.970Z,4656
2018-10-17T08:27:12.915Z,4744
2018-10-17T08:28:13.525Z,4820
2018-10-17T08:29:14.205Z,4912
2018-10-17T08:30:14.963Z,4996
2018-10-17T08:31:15.558Z,5068
2018-10-17T08:32:16.233Z,5128
2018-10-17T08:33:16.912Z,5172
2018-10-17T08:34:17.595Z,5216
2018-10-17T08:35:18.336Z,5296
2018-10-17T08:36:19.103Z,5408
2018-10-17T08:37:20.033Z,5520
2018-10-17T08:38:20.333Z,5604
2018-10-17T08:39:21.032Z,5712
2018-10-17T08:40:21.686Z,5808
2018-10-17T08:41:22.370Z,5876
2018-10-17T08:42:23.042Z,5924
2018-10-17T08:43:23.763Z,5928
2018-10-17T08:44:24.438Z,5936
2018-10-17T08:45:25.115Z,5944
2018-10-17T08:46:25.793Z,5964
2018-10-17T08:47:26.470Z,5984
2018-10-17T08:48:27.149Z,5976
2018-10-17T08:49:27.824Z,5936
2018-10-17T08:50:28.512Z,5852
2018-10-17T08:51:29.182Z,5724
2018-10-17T08:52:29.860Z,5544
2018-10-17T08:53:30.538Z,5320
2018-10-17T08:54:31.215Z,4992
2018-10-17T08:55:31.893Z,4588
2018-10-17T08:56:32.573Z,4148
2018-10-17T08:57:33.250Z,3728
2018-10-17T08:58:33.926Z,3368
2018-10-17T08:59:34.600Z,3112
2018-10-17T09:00:35.279Z,2940
2018-10-17T09:01:35.954Z,2844
2018-10-17T09:02:36.632Z,2864
2018-10-17T09:03:37.308Z,3024
2018-10-17T09:04:37.989Z,3352
2018-10-17T09:05:38.707Z,3652
2018-10-17T09:06:39.390Z,3844
2018-10-17T09:07:40.147Z,4328
2018-10-17T09:08:40.820Z,4600
2018-10-17T09:09:41.496Z,4596
2018-10-17T09:10:42.172Z,4604
2018-10-17T09:11:42.851Z,4632
2018-10-17T09:12:43.531Z,4612
2018-10-17T09:13:44.205Z,4592
2018-10-17T09:14:44.890Z,4608
2018-10-17T09:15:45.559Z,4584
2018-10-17T09:16:46.340Z,4564
2018-10-17T09:17:46.913Z,4548
2018-10-17T09:18:47.592Z,4540
2018-10-17T09:19:48.454Z,4552
2018-10-17T09:20:49.288Z,4548
2018-10-17T09:21:49.951Z,4548
2018-10-17T09:22:50.348Z,4524
2018-10-17T09:23:51.028Z,4496
2018-10-17T09:24:51.707Z,4472
2018-10-17T09:25:52.424Z,4452
2018-10-17T09:26:53.104Z,4448
2018-10-17T09:27:53.838Z,4464
2018-10-17T09:28:54.459Z,4468
2018-10-17T09:29:55.177Z,4452
2018-10-17T09:30:55.815Z,4436
2018-10-17T09:31:56.493Z,4420
2018-10-17T09:32:57.169Z,4400
2018-10-17T09:33:57.865Z,4400
2018-10-17T09:34:58.594Z,4404
2018-10-17T09:35:59.274Z,4416
2018-10-17T09:36:59.952Z,4420
2018-10-17T09:38:00.682Z,4432
2018-10-17T09:39:01.358Z,4432
2018-10-17T09:40:02.070Z,4424
2018-10-17T09:41:02.713Z,4408
2018-10-17T09:42:03.446Z,4388
2018-10-17T09:43:04.147Z,4364
2018-10-17T09:44:04.833Z,4348
2018-10-17T09:45:05.542Z,4344
2018-10-17T09:46:06.265Z,4344
2018-10-17T09:47:06.894Z,4368
2018-10-17T09:48:07.734Z,4380
2018-10-17T09:49:08.257Z,4412
2018-10-17T09:50:08.976Z,4432
2018-10-17T09:51:09.647Z,4448
2018-10-17T09:52:10.402Z,4456
2018-10-17T09:53:11.113Z,4448
2018-10-17T09:54:11.822Z,4428
2018-10-17T09:55:12.443Z,4404
2018-10-17T09:56:13.110Z,4384
2018-10-17T09:57:13.791Z,4372
2018-10-17T09:58:14.493Z,4376
2018-10-17T09:59:15.178Z,4392
2018-10-17T10:00:15.945Z,4400
2018-10-17T10:01:16.544Z,4400
2018-10-17T10:02:17.340Z,4388
2018-10-17T10:03:17.934Z,4372
2018-10-17T10:04:18.646Z,4356
2018-10-17T10:05:19.292Z,4344
2018-10-17T10:06:19.992Z,4336
2018-10-17T10:07:20.645Z,4340
2018-10-17T10:08:21.324Z,4336
2018-10-17T10:09:22.003Z,4332
2018-10-17T10:10:22.681Z,4332
2018-10-17T10:11:23.358Z,4324
2018-10-17T10:12:24.035Z,4304
2018-10-17T10:13:24.717Z,4296
2018-10-17T10:14:25.397Z,4264
2018-10-17T10:15:26.115Z,4256
2018-10-17T10:16:26.795Z,4240
2018-10-17T10:17:27.510Z,4236
2018-10-17T10:18:28.152Z,4240
2018-10-17T10:19:28.830Z,4244
2018-10-17T10:20:29.537Z,4248
2018-10-17T10:21:30.231Z,4256
2018-10-17T10:22:30.909Z,4252
2018-10-17T10:23:31.655Z,4244
2018-10-17T10:24:32.304Z,4244
2018-10-17T10:25:32.975Z,4248
2018-10-17T10:26:33.666Z,4256
2018-10-17T10:27:34.345Z,4248
2018-10-17T10:28:35.096Z,4248
2018-10-17T10:29:35.706Z,4252
2018-10-17T10:30:36.386Z,4252
2018-10-17T10:31:37.102Z,4264
2018-10-17T10:32:37.780Z,4268
2018-10-17T10:33:38.462Z,4276
2018-10-17T10:34:39.136Z,4276
2018-10-17T10:35:39.817Z,4268
2018-10-17T10:36:40.493Z,4272
2018-10-17T10:37:41.173Z,4284
2018-10-17T10:38:41.851Z,4292
2018-10-17T10:39:42.530Z,4288
2018-10-17T10:40:43.257Z,4288
2018-10-17T10:41:43.887Z,4284
2018-10-17T10:42:44.565Z,4284
2018-10-17T10:43:45.244Z,4284
2018-10-17T10:44:45.930Z,4324
2018-10-17T10:45:46.600Z,4332
2018-10-17T10:46:47.277Z,4316
2018-10-17T10:47:47.957Z,4320
2018-10-17T10:48:48.637Z,4328
2018-10-17T10:49:49.314Z,4336
2018-10-17T10:50:49.999Z,4340
2018-10-17T10:51:50.718Z,4344
2018-10-17T10:52:51.488Z,4348
2018-10-17T10:53:52.118Z,4360
2018-10-17T10:54:52.785Z,4364
2018-10-17T10:55:53.501Z,4380
2018-10-17T10:56:54.154Z,4384
2018-10-17T10:57:54.947Z,4396
2018-10-17T10:58:55.555Z,4404
2018-10-17T10:59:56.290Z,4416
2018-10-17T11:00:56.903Z,4432
2018-10-17T11:01:57.589Z,4448
2018-10-17T11:02:58.322Z,4460
2018-10-17T11:03:58.986Z,4468
2018-10-17T11:04:59.722Z,4476
2018-10-17T11:06:00.385Z,4488
2018-10-17T11:07:01.064Z,4500
2018-10-17T11:08:01.797Z,4516
2018-10-17T11:09:02.421Z,4528
2018-10-17T11:10:03.101Z,4540
2018-10-17T11:11:03.855Z,4548
2018-10-17T11:12:04.459Z,4556
2018-10-17T11:13:05.136Z,4564
2018-10-17T11:14:05.904Z,4572
2018-10-17T11:15:06.555Z,4572
2018-10-17T11:16:07.174Z,4580
2018-10-17T11:17:07.921Z,4592
2018-10-17T11:18:08.531Z,4596
2018-10-17T11:19:09.212Z,4608
2018-10-17T11:20:09.892Z,4612
2018-10-17T11:21:10.698Z,4620
2018-10-17T11:22:11.286Z,4620
2018-10-17T11:23:12.028Z,4616
2018-10-17T11:24:12.647Z,4608
2018-10-17T11:25:13.326Z,4604
2018-10-17T11:26:14.010Z,4612
2018-10-17T11:27:14.720Z,4616
2018-10-17T11:28:15.401Z,4632
2018-10-17T11:29:16.171Z,4644
2018-10-17T11:30:16.762Z,4652
2018-10-17T11:31:17.466Z,4652
2018-10-17T11:32:18.119Z,4648
2018-10-17T11:33:18.874Z,4640
2018-10-17T11:34:19.477Z,4632
2018-10-17T11:35:20.360Z,4620
2018-10-17T11:36:21.039Z,4612
2018-10-17T11:37:21.794Z,4608
2018-10-17T11:38:22.400Z,4612
2018-10-17T11:39:23.080Z,4628
2018-10-17T11:40:23.825Z,4620
2018-10-17T11:41:24.510Z,4624
2018-10-17T11:42:25.145Z,4612
2018-10-17T11:43:25.797Z,4608
2018-10-17T11:44:26.476Z,4620
2018-10-17T11:45:27.157Z,4632
2018-10-17T11:46:27.837Z,4652
2018-10-17T11:47:28.532Z,4676
2018-10-17T11:48:29.201Z,4688
2018-10-17T11:49:29.876Z,4688
2018-10-17T11:50:30.585Z,4568
2018-10-17T11:51:31.233Z,4572
2018-10-17T11:52:31.913Z,4572
2018-10-17T11:53:32.596Z,4568
2018-10-17T11:54:33.273Z,4584
2018-10-17T11:55:33.953Z,4588
2018-10-17T11:56:34.632Z,4596
2018-10-17T11:57:35.312Z,4588
2018-10-17T11:58:35.992Z,4588
2018-10-17T11:59:36.756Z,4596
2018-10-17T12:00:37.353Z,4592
2018-10-17T12:01:38.030Z,4576
2018-10-17T12:02:38.713Z,4576
2018-10-17T12:03:39.534Z,4568
2018-10-17T12:04:40.356Z,4572
2018-10-17T12:05:41.279Z,4564
2018-10-17T12:06:41.468Z,4560
2018-10-17T12:07:42.152Z,4556
2018-10-17T12:08:42.828Z,4556
2018-10-17T12:09:43.509Z,4548
2018-10-17T12:10:44.189Z,4548
2018-10-17T12:11:44.900Z,4552
2018-10-17T12:12:45.549Z,4544
2018-10-17T12:13:46.228Z,4544
2018-10-17T12:14:46.910Z,4524
2018-10-17T12:15:47.590Z,4516
2018-10-17T12:16:48.271Z,4536
2018-10-17T12:17:48.957Z,4560
2018-10-17T12:18:49.632Z,4580
2018-10-17T12:19:50.343Z,4600
2018-10-17T12:20:51.044Z,4620
2018-10-17T12:21:51.672Z,4624
2018-10-17T12:22:52.353Z,4624
2018-10-17T12:23:53.038Z,4636
2018-10-17T12:24:53.754Z,4672
2018-10-17T12:25:54.434Z,4752
2018-10-17T12:26:55.122Z,5016
2018-10-17T12:27:55.966Z,5492
2018-10-17T12:28:56.598Z,5708
2018-10-17T12:29:57.267Z,5156
2018-10-17T12:30:57.912Z,4640
2018-10-17T12:31:58.592Z,4208
2018-10-17T12:32:59.293Z,4128
2018-10-17T12:33:59.987Z,4688
2018-10-17T12:35:00.742Z,4476
2018-10-17T12:36:01.347Z,4872
2018-10-17T12:37:02.029Z,4800
2018-10-17T12:38:02.751Z,4916
2018-10-17T12:39:03.490Z,4984
2018-10-17T12:40:04.151Z,4996
2018-10-17T12:41:05.057Z,4952
2018-10-17T12:42:05.511Z,4680
2018-10-17T12:43:06.194Z,4880
2018-10-17T12:44:06.995Z,4892
2018-10-17T12:45:07.602Z,4948
2018-10-17T12:46:08.277Z,4760
2018-10-17T12:47:09.038Z,4952
2018-10-17T12:48:09.681Z,4992
2018-10-17T12:49:10.451Z,5012
2018-10-17T12:50:11.051Z,5024
2018-10-17T12:51:11.721Z,5036
2018-10-17T12:52:12.477Z,5016
2018-10-17T12:53:13.187Z,5004
2018-10-17T12:54:13.763Z,4984
2018-10-17T12:55:14.486Z,4960
2018-10-17T12:56:15.191Z,4924
2018-10-17T12:57:15.804Z,4900
2018-10-17T12:58:16.486Z,4852
2018-10-17T12:59:17.236Z,4808
2018-10-17T13:00:17.846Z,4784
2018-10-17T13:01:18.563Z,4768
2018-10-17T13:02:19.206Z,4744
2018-10-17T13:03:19.886Z,4736
2018-10-17T13:04:20.566Z,4736
2018-10-17T13:05:21.249Z,4720
2018-10-17T13:06:21.931Z,4700
2018-10-17T13:07:22.610Z,4676
2018-10-17T13:08:23.291Z,4644
2018-10-17T13:09:24.029Z,4604
2018-10-17T13:10:24.651Z,4592
2018-10-17T13:11:25.352Z,4568
2018-10-17T13:12:26.012Z,4532
2018-10-17T13:13:26.734Z,4492
2018-10-17T13:14:27.414Z,4452
2018-10-17T13:15:28.099Z,4420
2018-10-17T13:16:28.820Z,4368
2018-10-17T13:17:29.501Z,4332
2018-10-17T13:18:30.181Z,4328
2018-10-17T13:19:30.898Z,4316
2018-10-17T13:20:31.582Z,4324
2018-10-17T13:21:32.262Z,4324
2018-10-17T13:22:32.944Z,4468
2018-10-17T13:23:33.624Z,4672
2018-10-17T13:24:34.371Z,4624
2018-10-17T13:25:34.985Z,4404
2018-10-17T13:26:35.664Z,4336
2018-10-17T13:27:36.344Z,4300
2018-10-17T13:28:37.024Z,4288
2018-10-17T13:29:37.707Z,4272
2018-10-17T13:30:38.385Z,4268
2018-10-17T13:31:39.108Z,4260
2018-10-17T13:32:39.825Z,4252
2018-10-17T13:33:40.515Z,4224
2018-10-17T13:34:41.194Z,4224
2018-10-17T13:35:41.875Z,4216
2018-10-17T13:36:42.555Z,4252
2018-10-17T13:37:43.236Z,4296
2018-10-17T13:38:43.947Z,4124
2018-10-17T13:39:44.678Z,4096
2018-10-17T13:40:45.350Z,4080
2018-10-17T13:41:46.030Z,4052
2018-10-17T13:42:46.710Z,4020
2018-10-17T13:43:47.435Z,3972
2018-10-17T13:44:48.114Z,3952
2018-10-17T13:45:48.792Z,3952
2018-10-17T13:46:49.476Z,3948
2018-10-17T13:47:50.173Z,3968
2018-10-17T13:48:50.844Z,3976
2018-10-17T13:49:51.518Z,3980
2018-10-17T13:50:52.215Z,3980
2018-10-17T13:51:52.921Z,3960
2018-10-17T13:52:53.696Z,4004
2018-10-17T13:53:54.313Z,4044
2018-10-17T13:54:55.086Z,4044
2018-10-17T13:55:55.673Z,4028
2018-10-17T13:56:56.353Z,3996
2018-10-17T13:57:57.114Z,3972
2018-10-17T13:58:57.715Z,3980
2018-10-17T13:59:58.461Z,3964
2018-10-17T14:00:59.197Z,3940
2018-10-17T14:01:59.835Z,3888